createdAt,value
2019-05-13T00:02:04.943Z,102501.13
2019-05-13T00:04:35.112Z,102502.41
2019-05-13T00:07:05.160Z,102494.08
2019-05-13T00:09:35.234Z,102491.42
2019-05-13T00:12:05.408Z,102494.11
2019-05-13T00:14:35.576Z,102495.81
2019-05-13T00:17:05.640Z,102497.16
2019-05-13T00:19:35.729Z,102499.84
2019-05-13T00:22:05.801Z,102500.23
2019-05-13T00:24:35.892Z,102496.73
2019-05-13T00:27:05.963Z,102495.84
2019-05-13T00:29:36.465Z,102501.98
2019-05-13T00:32:06.526Z,102505.48
2019-05-13T00:34:36.625Z,102504.17
2019-05-13T00:37:10.808Z,102509.42
2019-05-13T00:39:38.512Z,102512.08
2019-05-13T00:42:08.552Z,102513.33
2019-05-13T00:44:38.645Z,102515.88
2019-05-13T00:47:08.701Z,102523.78
2019-05-13T00:49:38.795Z,102515.92
2019-05-13T00:52:08.874Z,102516.31
2019-05-13T00:54:39.269Z,102518.50
2019-05-13T00:57:09.324Z,102515.00
2019-05-13T00:59:39.420Z,102519.78
2019-05-13T01:02:09.491Z,102521.56
2019-05-13T01:04:39.570Z,102521.98
2019-05-13T01:07:22.871Z,102527.66
2019-05-13T01:09:41.519Z,102532.94
2019-05-13T01:12:13.405Z,102537.30
2019-05-13T01:14:44.577Z,102542.08
2019-05-13T01:17:14.639Z,102534.21
2019-05-13T01:19:45.631Z,102535.95
2019-05-13T01:22:15.687Z,102539.39
2019-05-13T01:24:45.784Z,102539.39
2019-05-13T01:27:15.844Z,102535.45
2019-05-13T01:29:45.946Z,102540.17
2019-05-13T01:32:17.341Z,102539.75
2019-05-13T01:34:47.433Z,102540.56
2019-05-13T01:37:17.488Z,102544.42
2019-05-13T01:39:47.583Z,102540.48
2019-05-13T01:42:17.649Z,102539.53
2019-05-13T01:44:47.745Z,102543.92
2019-05-13T01:47:17.813Z,102540.77
2019-05-13T01:49:47.930Z,102539.96
2019-05-13T01:52:19.335Z,102535.98
2019-05-13T01:57:40.333Z,102549.59
2019-05-13T02:00:10.901Z,102554.27
2019-05-13T02:02:40.975Z,102553.42
2019-05-13T02:05:11.024Z,102552.84
2019-05-13T02:07:56.094Z,102553.31
2019-05-13T02:10:15.314Z,102555.05
2019-05-13T02:12:45.386Z,102558.55
2019-05-13T02:15:15.726Z,102556.39
2019-05-13T02:17:45.800Z,102562.02
2019-05-13T02:20:15.835Z,102562.83
2019-05-13T02:22:45.903Z,102567.30
2019-05-13T02:25:15.933Z,102569.89
2019-05-13T02:27:46.000Z,102573.78
2019-05-13T02:30:16.675Z,102584.66
2019-05-13T02:32:46.884Z,102585.23
2019-05-13T02:35:16.926Z,102587.89
2019-05-13T02:37:46.985Z,102582.69
2019-05-13T02:40:17.023Z,102586.66
2019-05-13T02:42:47.103Z,102581.02
2019-05-13T02:45:17.146Z,102579.22
2019-05-13T02:47:47.210Z,102581.48
2019-05-13T02:50:17.451Z,102583.69
2019-05-13T02:52:47.613Z,102584.03
2019-05-13T02:55:17.647Z,102587.12
2019-05-13T02:57:47.754Z,102581.38
2019-05-13T03:00:17.792Z,102588.78
2019-05-13T03:02:47.893Z,102590.52
2019-05-13T03:05:18.330Z,102587.81
2019-05-13T03:07:48.714Z,102590.32
2019-05-13T03:10:18.854Z,102591.01
2019-05-13T03:12:48.947Z,102589.23
2019-05-13T03:15:18.999Z,102585.22
2019-05-13T03:17:53.765Z,102587.97
2019-05-13T03:20:23.794Z,102594.09
2019-05-13T03:22:53.893Z,102595.41
2019-05-13T03:25:23.958Z,102606.70
2019-05-13T03:27:54.508Z,102609.58
2019-05-13T03:30:26.184Z,102612.58
2019-05-13T03:33:02.054Z,102610.03
2019-05-13T03:35:28.403Z,102616.97
2019-05-13T03:37:58.615Z,102618.70
2019-05-13T03:40:28.957Z,102616.92
2019-05-13T03:43:02.676Z,102616.09
2019-05-13T03:45:34.277Z,102619.08
2019-05-13T03:48:04.669Z,102613.80
2019-05-13T03:50:35.066Z,102616.84
2019-05-13T03:53:06.731Z,102618.23
2019-05-13T03:55:36.776Z,102616.47
2019-05-13T03:58:08.511Z,102618.58
2019-05-13T04:00:38.575Z,102622.05
2019-05-13T04:03:08.676Z,102621.20
2019-05-13T04:05:38.848Z,102620.35
2019-05-13T04:08:08.961Z,102624.33
2019-05-13T04:10:41.951Z,102627.50
2019-05-13T04:13:12.425Z,102626.67
2019-05-13T04:15:43.551Z,102626.41
2019-05-13T04:18:14.147Z,102626.18
2019-05-13T04:20:44.210Z,102619.55
2019-05-13T04:23:14.307Z,102619.39
2019-05-13T04:25:44.949Z,102617.66
2019-05-13T04:28:15.459Z,102614.50
2019-05-13T04:30:45.529Z,102617.19
2019-05-13T04:33:15.636Z,102620.25
2019-05-13T04:35:45.812Z,102613.61
2019-05-13T04:38:15.923Z,102606.70
2019-05-13T04:40:46.002Z,102619.17
2019-05-13T04:43:16.100Z,102619.93
2019-05-13T04:45:46.294Z,102624.91
2019-05-13T04:48:17.183Z,102630.23
2019-05-13T04:50:47.257Z,102628.64
2019-05-13T04:53:17.297Z,102620.80
2019-05-13T04:55:47.406Z,102622.43
2019-05-13T04:58:17.449Z,102631.02
2019-05-13T05:01:02.124Z,102635.84
2019-05-13T05:03:48.946Z,102634.77
2019-05-13T05:06:42.392Z,102634.61
2019-05-13T05:09:29.518Z,102633.84
2019-05-13T05:12:17.456Z,102637.41
2019-05-13T05:15:07.225Z,102640.78
2019-05-13T05:18:03.038Z,102633.91
2019-05-13T05:20:35.957Z,102632.97
2019-05-13T05:23:17.890Z,102630.28
2019-05-13T05:26:01.270Z,102632.58
2019-05-13T05:28:43.682Z,102638.28
2019-05-13T05:31:32.677Z,102639.20
2019-05-13T05:34:23.726Z,102640.90
2019-05-13T05:37:05.516Z,102649.11
2019-05-13T05:39:38.293Z,102650.67
2019-05-13T05:42:11.216Z,102653.73
2019-05-13T05:44:44.371Z,102651.35
2019-05-13T05:47:16.623Z,102650.52
2019-05-13T05:49:48.085Z,102652.17
2019-05-13T05:52:21.269Z,102651.30
2019-05-13T05:54:53.391Z,102654.35
2019-05-13T05:57:25.963Z,102651.30
2019-05-13T05:59:57.029Z,102655.44
2019-05-13T06:02:28.160Z,102667.80
2019-05-13T06:04:58.528Z,102660.22
2019-05-13T06:07:29.063Z,102663.63
2019-05-13T06:09:59.123Z,102665.03
2019-05-13T06:12:31.517Z,102666.45
2019-05-13T06:15:02.660Z,102666.96
2019-05-13T06:17:32.861Z,102664.38
2019-05-13T06:20:04.201Z,102674.58
2019-05-13T06:22:34.623Z,102668.91
2019-05-13T06:25:06.911Z,102673.81
2019-05-13T06:27:36.947Z,102676.89
2019-05-13T06:30:08.446Z,102681.33
2019-05-13T06:32:38.481Z,102682.76
2019-05-13T06:35:08.569Z,102693.66
2019-05-13T06:37:38.700Z,102689.44
2019-05-13T06:40:09.004Z,102690.06
2019-05-13T06:42:41.569Z,102696.39
2019-05-13T06:45:12.451Z,102700.05
2019-05-13T06:47:42.649Z,102698.23
2019-05-13T06:50:14.276Z,102696.84
2019-05-13T06:52:44.337Z,102705.12
2019-05-13T06:55:14.496Z,102708.29
2019-05-13T06:57:44.538Z,102716.52
2019-05-13T07:00:16.373Z,102717.29
2019-05-13T07:02:46.447Z,102715.42
2019-05-13T07:05:16.607Z,102715.34
2019-05-13T07:07:46.693Z,102716.81
2019-05-13T07:10:16.796Z,102722.59
2019-05-13T07:12:46.865Z,102723.48
2019-05-13T07:15:16.948Z,102720.52
2019-05-13T07:17:47.016Z,102720.20
2019-05-13T07:20:18.697Z,102727.63
2019-05-13T07:22:48.970Z,102725.35
2019-05-13T07:25:19.057Z,102733.98
2019-05-13T07:27:51.400Z,102729.37
2019-05-13T07:30:23.845Z,102727.97
2019-05-13T07:32:53.917Z,102727.12
2019-05-13T07:35:24.033Z,102729.27
2019-05-13T07:37:54.316Z,102738.99
2019-05-13T07:40:24.408Z,102728.96
2019-05-13T07:42:54.488Z,102729.19
2019-05-13T07:45:24.630Z,102736.30
2019-05-13T07:47:54.646Z,102734.99
2019-05-13T07:50:24.759Z,102749.52
2019-05-13T07:52:54.832Z,102730.11
2019-05-13T07:55:24.928Z,102732.40
2019-05-13T07:57:55.009Z,102734.98
2019-05-13T08:00:25.105Z,102739.16
2019-05-13T08:02:55.169Z,102741.86
2019-05-13T08:05:25.256Z,102751.30
2019-05-13T08:07:55.326Z,102740.69
2019-05-13T08:10:25.642Z,102742.66
2019-05-13T08:12:55.704Z,102740.09
2019-05-13T08:15:25.798Z,102747.11
2019-05-13T08:17:55.878Z,102744.66
2019-05-13T08:20:25.961Z,102739.52
2019-05-13T08:22:56.030Z,102746.65
2019-05-13T08:25:26.144Z,102741.59
2019-05-13T08:27:56.212Z,102742.39
2019-05-13T08:30:26.312Z,102746.38
2019-05-13T08:32:56.396Z,102741.97
2019-05-13T08:35:26.502Z,102751.19
2019-05-13T08:37:56.573Z,102746.54
2019-05-13T08:40:26.769Z,102747.00
2019-05-13T08:42:56.840Z,102753.61
2019-05-13T08:45:26.963Z,102754.91
2019-05-13T08:47:57.029Z,102753.28
2019-05-13T08:50:27.136Z,102758.06
2019-05-13T08:52:57.206Z,102766.38
2019-05-13T08:55:27.310Z,102755.65
2019-05-13T08:57:57.391Z,102742.59
2019-05-13T09:00:54.254Z,102749.31
2019-05-13T09:03:25.124Z,102747.59
2019-05-13T09:05:55.535Z,102749.76
2019-05-13T09:08:27.411Z,102757.11
2019-05-13T09:10:57.557Z,102750.83
2019-05-13T09:13:27.663Z,102759.78
2019-05-13T09:15:57.778Z,102759.88
2019-05-13T09:18:27.840Z,102758.64
2019-05-13T09:20:57.946Z,102762.13
2019-05-13T09:23:28.029Z,102755.51
2019-05-13T09:25:58.126Z,102754.66
2019-05-13T09:28:28.600Z,102749.82
2019-05-13T09:30:58.686Z,102758.02
2019-05-13T09:33:28.779Z,102771.34
2019-05-13T09:35:58.867Z,102756.50
2019-05-13T09:38:28.946Z,102753.92
2019-05-13T09:41:01.699Z,102755.81
2019-05-13T09:43:31.468Z,102746.13
2019-05-13T09:46:02.577Z,102749.06
2019-05-13T09:48:32.737Z,102756.08
2019-05-13T09:51:02.837Z,102747.36
2019-05-13T09:53:32.927Z,102744.47
2019-05-13T09:56:03.031Z,102750.20
2019-05-13T09:58:33.372Z,102741.85
2019-05-13T10:01:03.811Z,102731.31
2019-05-13T10:03:33.881Z,102727.36
2019-05-13T10:06:03.990Z,102720.35
2019-05-13T10:08:34.072Z,102723.41
2019-05-13T10:11:04.178Z,102715.08
2019-05-13T10:13:34.247Z,102731.31
2019-05-13T10:16:04.359Z,102722.08
2019-05-13T10:18:34.419Z,102724.30
2019-05-13T10:21:05.021Z,102722.55
2019-05-13T10:23:35.100Z,102717.27
2019-05-13T10:26:08.121Z,102703.98
2019-05-13T10:28:38.655Z,102701.73
2019-05-13T10:31:11.780Z,102699.34
2019-05-13T10:33:41.991Z,102700.31
2019-05-13T10:36:12.897Z,102707.03
2019-05-13T10:38:42.966Z,102712.83
2019-05-13T10:41:13.010Z,102713.70
2019-05-13T10:43:44.325Z,102707.58
2019-05-13T10:46:14.689Z,102712.84
2019-05-13T10:48:44.815Z,102701.39
2019-05-13T10:51:14.958Z,102703.59
2019-05-13T10:53:45.057Z,102700.08
2019-05-13T10:56:15.142Z,102696.09
2019-05-13T10:58:45.429Z,102700.02
2019-05-13T11:01:15.518Z,102687.17
2019-05-13T11:03:45.603Z,102686.64
2019-05-13T11:06:15.670Z,102683.23
2019-05-13T11:08:45.783Z,102698.74
2019-05-13T11:11:15.867Z,102698.73
2019-05-13T11:13:55.068Z,102696.58
2019-05-13T11:16:17.732Z,102695.22
2019-05-13T11:18:47.842Z,102692.16
2019-05-13T11:21:17.925Z,102685.09
2019-05-13T11:23:48.021Z,102686.38
2019-05-13T11:26:18.102Z,102678.45
2019-05-13T11:28:48.263Z,102677.91
2019-05-13T11:31:18.346Z,102670.34
2019-05-13T11:33:48.433Z,102665.22
2019-05-13T11:36:19.482Z,102658.41
2019-05-13T11:38:49.788Z,102654.81
2019-05-13T11:41:22.855Z,102662.09
2019-05-13T11:44:11.888Z,102651.61
2019-05-13T11:46:25.181Z,102655.34
2019-05-13T11:48:55.633Z,102647.45
2019-05-13T11:51:25.758Z,102658.14
2019-05-13T11:53:55.811Z,102649.36
2019-05-13T11:56:26.180Z,102660.42
2019-05-13T11:58:56.257Z,102666.59
2019-05-13T12:01:26.390Z,102663.05
2019-05-13T12:03:56.424Z,102656.41
2019-05-13T12:06:26.514Z,102652.36
2019-05-13T12:08:56.557Z,102641.49
2019-05-13T12:11:26.641Z,102647.07
2019-05-13T12:13:56.673Z,102645.16
2019-05-13T12:16:26.770Z,102656.83
2019-05-13T12:18:56.825Z,102641.13
2019-05-13T12:21:26.922Z,102641.22
2019-05-13T12:23:57.254Z,102636.78
2019-05-13T12:26:27.351Z,102641.64
2019-05-13T12:28:57.382Z,102640.13
2019-05-13T12:31:27.484Z,102637.20
2019-05-13T12:33:57.603Z,102631.27
2019-05-13T12:36:27.649Z,102628.70
2019-05-13T12:38:57.802Z,102621.91
2019-05-13T12:41:27.871Z,102616.78
2019-05-13T12:43:57.954Z,102613.13
2019-05-13T12:46:28.006Z,102617.35
2019-05-13T12:48:58.109Z,102610.16
2019-05-13T12:51:28.429Z,102611.59
2019-05-13T12:53:58.524Z,102613.47
2019-05-13T12:56:28.569Z,102609.94
2019-05-13T12:58:58.680Z,102600.17
2019-05-13T13:01:28.711Z,102599.37
2019-05-13T13:03:59.923Z,102593.25
2019-05-13T13:06:39.586Z,102590.73
2019-05-13T13:09:02.519Z,102587.69
2019-05-13T13:11:32.681Z,102594.42
2019-05-13T13:14:05.851Z,102591.44
2019-05-13T13:19:06.494Z,102590.62
2019-05-13T13:21:37.690Z,102595.05
2019-05-13T13:24:08.141Z,102589.83
2019-05-13T13:26:38.179Z,102597.73
2019-05-13T13:29:08.265Z,102599.49
2019-05-13T13:31:38.311Z,102592.88
2019-05-13T13:34:16.332Z,102596.37
2019-05-13T13:36:45.253Z,102588.86
2019-05-13T13:39:14.745Z,102591.61
2019-05-13T13:41:43.995Z,102601.76
2019-05-13T13:44:14.087Z,102604.48
2019-05-13T13:46:49.242Z,102604.05
2019-05-13T13:49:15.925Z,102615.52
2019-05-13T13:51:46.034Z,102613.77
2019-05-13T13:54:16.154Z,102614.21
2019-05-13T13:56:46.255Z,102615.55
2019-05-13T13:59:16.474Z,102609.80
2019-05-13T14:01:46.596Z,102609.81
2019-05-13T14:04:17.748Z,102604.09
2019-05-13T14:06:52.388Z,102592.80
2019-05-13T14:09:22.408Z,102597.46
2019-05-13T14:11:52.110Z,102587.77
2019-05-13T14:14:22.252Z,102588.64
2019-05-13T14:16:52.351Z,102583.33
2019-05-13T14:19:22.428Z,102577.55
2019-05-13T14:21:52.776Z,102574.00
2019-05-13T14:24:22.892Z,102575.27
2019-05-13T14:26:53.023Z,102573.89
2019-05-13T14:29:37.410Z,102576.48
2019-05-13T14:31:55.397Z,102579.13
2019-05-13T14:34:25.509Z,102570.96
2019-05-13T14:36:55.580Z,102574.02
2019-05-13T14:39:25.681Z,102580.30
2019-05-13T14:41:55.755Z,102571.56
2019-05-13T14:44:25.869Z,102567.08
2019-05-13T14:46:55.942Z,102571.31
2019-05-13T14:49:26.052Z,102576.21
2019-05-13T14:51:56.558Z,102571.18
2019-05-13T14:54:26.729Z,102563.72
2019-05-13T14:56:57.069Z,102560.09
2019-05-13T14:59:27.227Z,102564.22
2019-05-13T15:01:57.299Z,102563.77
2019-05-13T15:04:27.395Z,102555.23
2019-05-13T15:06:57.511Z,102554.55
2019-05-13T15:09:27.607Z,102561.61
2019-05-13T15:11:57.691Z,102553.95
2019-05-13T15:14:27.800Z,102554.42
2019-05-13T15:17:02.710Z,102555.78
2019-05-13T15:19:31.689Z,102555.37
2019-05-13T15:22:01.431Z,102553.55
2019-05-13T15:24:32.449Z,102546.05
2019-05-13T15:27:02.678Z,102547.77
2019-05-13T15:29:32.719Z,102549.50
2019-05-13T15:32:05.634Z,102552.59
2019-05-13T15:34:35.679Z,102548.22
2019-05-13T15:37:05.977Z,102550.94
2019-05-13T15:39:36.211Z,102547.44
2019-05-13T15:42:06.403Z,102551.87
2019-05-13T15:44:36.450Z,102555.45
2019-05-13T15:47:22.435Z,102560.38
2019-05-13T15:49:38.277Z,102560.02
2019-05-13T15:52:08.376Z,102560.03
2019-05-13T15:54:38.420Z,102563.14
2019-05-13T15:57:08.517Z,102562.27
2019-05-13T15:59:38.556Z,102560.49
2019-05-13T16:02:08.641Z,102556.09
2019-05-13T16:04:49.922Z,102549.94
2019-05-13T16:07:12.216Z,102543.30
2019-05-13T16:09:42.468Z,102534.49
2019-05-13T16:12:12.570Z,102528.25
2019-05-13T16:14:42.598Z,102530.41
2019-05-13T16:17:12.893Z,102529.42
2019-05-13T16:19:42.942Z,102529.42
2019-05-13T16:22:13.034Z,102524.54
2019-05-13T16:24:43.084Z,102527.63
2019-05-13T16:27:13.110Z,102535.56
2019-05-13T16:29:46.749Z,102528.06
2019-05-13T16:32:17.360Z,102525.89
2019-05-13T16:34:47.477Z,102526.39
2019-05-13T16:37:17.515Z,102533.91
2019-05-13T16:39:47.612Z,102542.30
2019-05-13T16:42:17.874Z,102538.37
2019-05-13T16:44:48.252Z,102541.00
2019-05-13T16:47:21.692Z,102544.50
2019-05-13T16:49:52.111Z,102537.48
2019-05-13T16:52:22.221Z,102541.01
2019-05-13T16:54:56.510Z,102537.88
2019-05-13T16:57:27.196Z,102540.08
2019-05-13T16:59:57.336Z,102533.91
2019-05-13T17:02:27.397Z,102530.33
2019-05-13T17:04:57.593Z,102525.51
2019-05-13T17:07:27.868Z,102525.95
2019-05-13T17:10:00.232Z,102523.30
2019-05-13T17:12:36.681Z,102529.53
2019-05-13T17:15:10.728Z,102542.37
2019-05-13T17:17:42.305Z,102529.17
2019-05-13T17:20:13.237Z,102530.06
2019-05-13T17:22:43.352Z,102533.62
2019-05-13T17:25:14.034Z,102535.84
2019-05-13T17:27:56.038Z,102538.48
2019-05-13T17:31:04.253Z,102541.58
2019-05-13T17:36:59.084Z,102548.20
2019-05-13T17:39:47.805Z,102543.79
2019-05-13T17:42:14.587Z,102546.45
2019-05-13T17:44:46.443Z,102546.43
2019-05-13T17:47:16.833Z,102550.83
2019-05-13T17:49:47.075Z,102554.34
2019-05-13T17:52:17.325Z,102552.58
2019-05-13T17:54:47.568Z,102552.13
2019-05-13T17:57:18.106Z,102552.58
2019-05-13T17:59:48.292Z,102556.93
2019-05-13T18:02:18.653Z,102555.20
2019-05-13T18:04:49.143Z,102565.28
2019-05-13T18:07:21.397Z,102570.13
2019-05-13T18:09:52.102Z,102569.23
2019-05-13T18:12:22.483Z,102571.44
2019-05-13T18:14:52.810Z,102571.89
2019-05-13T18:17:23.495Z,102567.91
2019-05-13T18:19:53.757Z,102574.50
2019-05-13T18:22:24.433Z,102576.28
2019-05-13T18:24:54.904Z,102581.97
2019-05-13T18:27:25.533Z,102577.11
2019-05-13T18:29:55.977Z,102582.83
2019-05-13T18:32:26.455Z,102583.28
2019-05-13T18:34:57.185Z,102588.52
2019-05-13T18:37:27.487Z,102584.09
2019-05-13T18:39:58.166Z,102586.30
2019-05-13T18:42:28.455Z,102588.00
2019-05-13T18:44:58.761Z,102586.23
2019-05-13T18:47:31.605Z,102594.12
2019-05-13T18:50:02.539Z,102592.28
2019-05-13T18:52:32.872Z,102594.89
2019-05-13T18:55:03.120Z,102590.03
2019-05-13T18:57:33.523Z,102598.31
2019-05-13T19:00:05.045Z,102596.09
2019-05-13T19:02:41.326Z,102600.88
2019-05-13T19:05:09.033Z,102603.05
2019-05-13T19:07:41.724Z,102603.02
2019-05-13T19:10:11.853Z,102599.44
2019-05-13T19:12:42.377Z,102598.53
2019-05-13T19:15:13.225Z,102603.27
2019-05-13T19:17:43.998Z,102600.61
2019-05-13T19:20:14.383Z,102600.99
2019-05-13T19:22:45.503Z,102601.34
2019-05-13T19:25:17.279Z,102597.70
2019-05-13T19:27:47.494Z,102593.78
2019-05-13T19:30:18.174Z,102597.27
2019-05-13T19:32:48.455Z,102595.46
2019-05-13T19:35:18.853Z,102591.86
2019-05-13T19:37:51.423Z,102598.77
2019-05-13T19:40:22.070Z,102599.13
2019-05-13T19:42:53.316Z,102598.14
2019-05-13T19:48:34.239Z,102595.42
2019-05-13T19:51:04.588Z,102604.62
2019-05-13T19:53:35.127Z,102597.55
2019-05-13T19:56:05.337Z,102600.11
2019-05-13T19:58:35.541Z,102603.92
2019-05-13T20:01:06.218Z,102608.22
2019-05-13T20:03:36.628Z,102602.83
2019-05-13T20:06:07.059Z,102605.83
2019-05-13T20:08:37.412Z,102607.97
2019-05-13T20:11:08.040Z,102606.18
2019-05-13T20:13:38.535Z,102604.38
2019-05-13T20:16:08.982Z,102609.98
2019-05-13T20:18:44.229Z,102607.83
2019-05-13T20:21:14.466Z,102605.09
2019-05-13T20:23:46.490Z,102605.58
2019-05-13T20:26:17.050Z,102609.41
2019-05-13T20:28:47.682Z,102604.09
2019-05-13T20:31:18.285Z,102606.63
2019-05-13T20:33:51.611Z,102606.14
2019-05-13T20:39:16.305Z,102610.38
2019-05-13T20:42:01.555Z,102610.28
2019-05-13T20:45:48.507Z,102612.81
2019-05-13T20:47:37.568Z,102612.28
2019-05-13T20:53:13.419Z,102605.20
2019-05-13T20:55:52.505Z,102606.34
2019-05-13T20:58:31.560Z,102597.94
2019-05-13T21:01:13.843Z,102598.72
2019-05-13T21:03:43.895Z,102603.02
2019-05-13T21:06:15.588Z,102599.47
2019-05-13T21:08:47.426Z,102598.09
2019-05-13T21:11:17.725Z,102602.91
2019-05-13T21:13:47.973Z,102595.08
2019-05-13T21:16:21.914Z,102596.81
2019-05-13T21:18:52.095Z,102599.33
2019-05-13T21:21:22.294Z,102594.00
2019-05-13T21:23:52.405Z,102593.20
2019-05-13T21:26:22.614Z,102594.36
2019-05-13T21:28:52.712Z,102592.09
2019-05-13T21:31:22.740Z,102594.63
2019-05-13T21:33:52.820Z,102590.16
2019-05-13T21:36:22.860Z,102588.70
2019-05-13T21:38:52.953Z,102590.32
2019-05-13T21:41:22.979Z,102585.00
2019-05-13T21:43:53.087Z,102578.22
2019-05-13T21:46:23.117Z,102578.17
2019-05-13T21:48:53.208Z,102582.03
2019-05-13T21:51:23.252Z,102575.75
2019-05-13T21:53:53.335Z,102573.05
2019-05-13T21:56:23.397Z,102570.77
2019-05-13T21:58:53.481Z,102568.03
2019-05-13T22:01:23.634Z,102567.53
2019-05-13T22:03:53.729Z,102566.98
2019-05-13T22:06:23.781Z,102560.01
2019-05-13T22:08:54.184Z,102561.28
2019-05-13T22:11:24.204Z,102565.51
2019-05-13T22:13:54.295Z,102559.34
2019-05-13T22:16:24.356Z,102557.95
2019-05-13T22:18:54.437Z,102559.26
2019-05-13T22:21:24.563Z,102558.49
2019-05-13T22:23:54.667Z,102554.95
2019-05-13T22:26:24.732Z,102553.55
2019-05-13T22:28:54.829Z,102547.80
2019-05-13T22:31:24.889Z,102557.70
2019-05-13T22:33:55.013Z,102554.94
2019-05-13T22:36:25.084Z,102551.78
2019-05-13T22:38:55.174Z,102551.77
2019-05-13T22:41:25.261Z,102553.92
2019-05-13T22:43:58.694Z,102549.15
2019-05-13T22:46:27.128Z,102551.22
2019-05-13T22:48:57.225Z,102551.22
2019-05-13T22:51:27.300Z,102551.88
2019-05-13T22:53:57.393Z,102549.27
2019-05-13T22:56:27.470Z,102546.98
2019-05-13T22:58:57.574Z,102546.98
2019-05-13T23:01:27.640Z,102549.97
2019-05-13T23:03:57.766Z,102551.09
2019-05-13T23:06:27.941Z,102544.87
2019-05-13T23:08:58.147Z,102549.42
2019-05-13T23:11:28.232Z,102544.19
2019-05-13T23:14:07.368Z,102548.90
2019-05-13T23:16:31.606Z,102551.84
2019-05-13T23:19:01.942Z,102548.29
2019-05-13T23:21:31.974Z,102549.55
2019-05-13T23:24:02.286Z,102544.77
2019-05-13T23:26:32.422Z,102546.92
2019-05-13T23:29:02.534Z,102547.77
2019-05-13T23:31:32.586Z,102542.07
2019-05-13T23:34:02.702Z,102543.47
2019-05-13T23:36:32.733Z,102545.24
2019-05-13T23:39:03.060Z,102537.30
2019-05-13T23:41:33.089Z,102537.68
2019-05-13T23:44:03.196Z,102535.95
2019-05-13T23:46:33.244Z,102534.97
2019-05-13T23:49:03.346Z,102534.22
2019-05-13T23:51:33.381Z,102526.84
2019-05-13T23:54:03.479Z,102527.91
2019-05-13T23:56:33.530Z,102523.16
2019-05-13T23:59:03.627Z,102524.42
